Archival Weather

Václav Havel Intl Apt

Prague, Czechia (LKPR)

Report from: Monday, May 29, 2023 8:00 AM CEST
Current time: Friday, July 19, 2024 5:18 AM CEST

Current weather – Weather history – Daily summaries
Weather forecast

Temperature14.0°C (57.2°F)
Dew point6.0°C (42.8°F)
Winds 3 kts (1.5 m/s, 3.5 mph) Vrb
Winds variableWinds variable from West-Northwest (300°) to North-Northeast (30°)
Clouds Sky clear
Altimeter30.12 in.Hg (1020 mB)
Relative humidity59 %
Density altitude-210 ft. (-64 m)
Remarks Ceiling and visibility OK
No significant changes expected in the next two hours
Flight conditions Visual Meteorological Conditions
Raw dataLKPR 290600Z 36003KT 300V030 CAVOK 14/06 Q1020 NOSIG
An error has occurred. This application may no longer respond until reloaded. Reload 🗙